RJAT(METAR)
04/28 17:00
METAR RJAT 280800Z 15007KT 9999 FEW015 SCT020 14/00 Q1006 RMK 2CU015
4CU020 A2973=
戻る
トップページへ戻る
IMOC Co,.Ltd.